Time;durP1;ratioP1;P1;durP2;ratioP2;P2;SDS_P1;SDS_P2;PMS_P1;PMS_P2;Temp;Humidity;BMP_temperature;BMP_pressure;BME280_temperature;BME280_humidity;BME280_pressure;Samples;Min_cycle;Max_cycle;Signal;HPM_P1;HPM_P2
2022/05/02 00:00:46;;;;;;;3.63;3.27;;;5.60;99.90;;;;;;5063112;28;20265;-86
2022/05/02 00:03:13;;;;;;;3.37;3.13;;;5.60;99.90;;;;;;5029802;28;20186;-86
2022/05/02 00:05:39;;;;;;;4.47;3.70;;;5.50;99.90;;;;;;5030128;28;20193;-86
2022/05/02 00:08:06;;;;;;;3.73;3.07;;;5.50;99.90;;;;;;5046180;28;20297;-85
2022/05/02 00:10:32;;;;;;;6.07;2.77;;;5.50;99.90;;;;;;5045790;28;21104;-88
2022/05/02 00:12:59;;;;;;;4.53;3.47;;;5.40;99.90;;;;;;5047238;28;20222;-86
2022/05/02 00:15:24;;;;;;;3.30;1.97;;;5.40;99.90;;;;;;5046938;28;20218;-87
2022/05/02 00:17:56;;;;;;;6.53;3.70;;;5.40;99.90;;;;;;5030971;28;20213;-87
2022/05/02 00:20:24;;;;;;;3.43;2.53;;;5.50;99.90;;;;;;5046729;28;20258;-88
2022/05/02 00:22:50;;;;;;;4.27;3.07;;;5.40;99.90;;;;;;5046518;28;20236;-88
2022/05/02 00:25:16;;;;;;;4.30;3.60;;;5.40;99.90;;;;;;5046453;28;20663;-88
2022/05/02 00:27:42;;;;;;;3.67;3.00;;;5.40;99.90;;;;;;5046123;28;20214;-88
2022/05/02 00:30:11;;;;;;;4.50;3.00;;;5.30;99.90;;;;;;5029412;28;20198;-88
2022/05/02 00:32:38;;;;;;;2.77;2.10;;;5.40;99.90;;;;;;5045937;28;20327;-89
2022/05/02 00:35:05;;;;;;;4.43;4.03;;;5.30;99.90;;;;;;5029484;28;20221;-88
2022/05/02 00:37:31;;;;;;;4.53;2.67;;;5.30;99.90;;;;;;5046306;28;20228;-88
2022/05/02 00:39:57;;;;;;;2.73;2.53;;;5.40;99.90;;;;;;5045723;28;20234;-88
2022/05/02 00:42:23;;;;;;;4.87;3.97;;;5.40;99.90;;;;;;5046569;28;20573;-87
2022/05/02 00:44:49;;;;;;;3.00;2.90;;;5.40;99.90;;;;;;5047207;28;20186;-88
2022/05/02 00:47:20;;;;;;;3.60;3.30;;;5.40;99.90;;;;;;5029553;28;20367;-87
2022/05/02 00:49:48;;;;;;;2.33;2.13;;;5.40;99.90;;;;;;5030292;28;20712;-88
2022/05/02 00:52:14;;;;;;;4.47;2.73;;;5.50;99.90;;;;;;5029371;28;20226;-86
2022/05/02 00:54:42;;;;;;;3.63;2.67;;;5.40;99.90;;;;;;5046015;28;20214;-87
2022/05/02 00:57:08;;;;;;;9.77;2.47;;;5.40;99.90;;;;;;5029450;28;20232;-89
2022/05/02 00:59:38;;;;;;;4.67;3.40;;;5.50;99.90;;;;;;5029687;28;20182;-87
2022/05/02 01:02:09;;;;;;;3.00;2.77;;;5.50;99.90;;;;;;5029071;28;20226;-87
2022/05/02 01:04:36;;;;;;;3.47;2.37;;;5.50;99.90;;;;;;5045643;28;20214;-87
2022/05/02 01:07:11;;;;;;;7.17;3.20;;;5.40;99.90;;;;;;5045873;28;20617;-88
2022/05/02 01:09:46;;;;;;;2.63;2.43;;;5.40;99.90;;;;;;5045753;28;20217;-87
2022/05/02 01:12:19;;;;;;;2.70;2.50;;;5.40;99.90;;;;;;5044324;28;20247;-86
2022/05/02 01:14:52;;;;;;;8.93;3.47;;;5.40;99.90;;;;;;5046634;28;20236;-87
2022/05/02 01:17:18;;;;;;;3.60;3.30;;;5.40;99.90;;;;;;5045443;28;20224;-87
2022/05/02 01:19:44;;;;;;;2.90;2.70;;;5.40;99.90;;;;;;5044761;28;20214;-88
2022/05/02 01:22:10;;;;;;;7.73;3.77;;;5.30;99.90;;;;;;5025786;28;20303;-86
2022/05/02 01:24:37;;;;;;;6.03;4.50;;;5.20;99.90;;;;;;5041686;28;20214;-87
2022/05/02 01:27:05;;;;;;;3.50;2.80;;;5.20;99.90;;;;;;5040974;28;20198;-89
2022/05/02 01:29:32;;;;;;;2.33;2.20;;;5.10;99.90;;;;;;5041607;28;20182;-86
2022/05/02 01:31:59;;;;;;;4.07;3.67;;;5.10;99.90;;;;;;5041575;28;20230;-86
2022/05/02 01:34:25;;;;;;;2.93;2.17;;;5.00;99.90;;;;;;5057163;28;20213;-88
2022/05/02 01:36:51;;;;;;;4.53;3.80;;;5.00;99.90;;;;;;5025505;28;20214;-86
2022/05/02 01:39:17;;;;;;;3.60;2.90;;;5.00;99.90;;;;;;5043086;28;20240;-85
2022/05/02 01:41:43;;;;;;;3.60;2.23;;;5.00;99.90;;;;;;5046119;28;20264;-88
2022/05/02 01:44:08;;;;;;;3.53;3.27;;;5.00;99.90;;;;;;5043846;28;20218;-85
2022/05/02 01:46:34;;;;;;;2.80;2.60;;;4.90;99.90;;;;;;5044156;28;20218;-85
2022/05/02 01:49:00;;;;;;;4.17;3.70;;;4.90;99.90;;;;;;5044147;28;20279;-86
2022/05/02 01:51:25;;;;;;;4.10;3.87;;;4.90;99.90;;;;;;5044112;28;20226;-86
2022/05/02 01:53:51;;;;;;;3.23;2.90;;;4.80;99.90;;;;;;5028359;28;20182;-85
2022/05/02 01:56:17;;;;;;;3.90;2.73;;;4.80;99.90;;;;;;5011413;28;20843;-85
2022/05/02 01:58:43;;;;;;;4.77;3.57;;;4.80;99.90;;;;;;5027562;28;21027;-86
2022/05/02 02:01:08;;;;;;;4.33;3.93;;;4.90;99.90;;;;;;5045762;28;20222;-86
2022/05/02 02:03:34;;;;;;;2.47;1.87;;;4.90;99.90;;;;;;5011427;28;20221;-86
2022/05/02 02:06:00;;;;;;;3.37;2.67;;;4.90;99.90;;;;;;5011808;28;20654;-88
2022/05/02 02:08:28;;;;;;;3.63;2.00;;;4.90;99.90;;;;;;5045723;28;20277;-85
2022/05/02 02:10:58;;;;;;;3.53;3.33;;;4.90;99.90;;;;;;5044304;28;20252;-88
2022/05/02 02:13:24;;;;;;;4.07;3.10;;;4.80;99.90;;;;;;5045141;28;20209;-86
2022/05/02 02:15:50;;;;;;;2.07;1.87;;;4.80;99.90;;;;;;5044244;28;20565;-89
2022/05/02 02:18:16;;;;;;;4.37;3.03;;;4.80;99.90;;;;;;5027773;28;20291;-87
2022/05/02 02:20:44;;;;;;;3.03;2.40;;;4.80;99.90;;;;;;5046115;28;20213;-86
2022/05/02 02:23:10;;;;;;;3.23;2.93;;;4.70;99.90;;;;;;5042955;28;20241;-86
2022/05/02 02:25:37;;;;;;;4.23;2.60;;;4.70;99.90;;;;;;5027458;28;20226;-85
2022/05/02 02:28:03;;;;;;;3.40;3.10;;;4.70;99.90;;;;;;5044986;28;20226;-86
2022/05/02 02:30:29;;;;;;;2.63;1.70;;;4.70;99.90;;;;;;5045280;28;20222;-88
2022/05/02 02:32:59;;;;;;;3.30;3.00;;;4.70;99.90;;;;;;5045184;28;20201;-85
2022/05/02 02:35:26;;;;;;;4.37;2.87;;;4.70;99.90;;;;;;5044680;28;20186;-87
2022/05/02 02:37:52;;;;;;;3.23;2.27;;;4.70;99.90;;;;;;5060372;28;20249;-86
2022/05/02 02:40:18;;;;;;;2.53;2.33;;;4.70;99.90;;;;;;5043104;28;20724;-88
2022/05/02 02:42:45;;;;;;;3.97;2.57;;;4.70;99.90;;;;;;5045600;28;20224;-87
2022/05/02 02:45:11;;;;;;;1.90;1.80;;;4.70;99.90;;;;;;5043517;28;20547;-87
2022/05/02 02:47:37;;;;;;;4.63;2.60;;;4.70;99.90;;;;;;5045074;28;20616;-89
2022/05/02 02:50:03;;;;;;;4.70;3.97;;;4.70;99.90;;;;;;5045270;28;20244;-87
2022/05/02 02:52:29;;;;;;;4.77;4.23;;;4.70;99.90;;;;;;5043712;28;20209;-87
2022/05/02 02:54:55;;;;;;;6.87;3.63;;;4.70;99.90;;;;;;5047056;28;20234;-87
2022/05/02 02:57:21;;;;;;;4.03;3.37;;;4.70;99.90;;;;;;5047957;28;20717;-86
2022/05/02 02:59:47;;;;;;;4.17;2.30;;;4.60;99.90;;;;;;5048374;28;21130;-87
2022/05/02 03:02:13;;;;;;;4.23;2.73;;;4.60;99.90;;;;;;5030977;28;20255;-87
2022/05/02 03:07:25;;;;;;;2.70;2.40;;;4.50;99.90;;;;;;5061993;28;21077;-88
2022/05/02 03:09:51;;;;;;;3.23;1.97;;;4.50;99.90;;;;;;5030587;28;20220;-87
2022/05/02 03:12:18;;;;;;;2.67;2.50;;;4.50;99.90;;;;;;5047525;28;20570;-87
2022/05/02 03:14:44;;;;;;;2.43;2.23;;;4.60;99.90;;;;;;5047939;28;20217;-88
2022/05/02 03:17:10;;;;;;;4.83;3.10;;;4.70;99.90;;;;;;5029673;28;20710;-87
2022/05/02 03:19:36;;;;;;;5.90;3.23;;;4.70;99.90;;;;;;5029175;28;21098;-88
2022/05/02 03:22:02;;;;;;;5.17;4.33;;;4.70;99.90;;;;;;5046326;28;20340;-86
2022/05/02 03:24:28;;;;;;;2.93;2.20;;;4.70;99.90;;;;;;5047258;28;20222;-87
2022/05/02 03:26:54;;;;;;;2.77;2.43;;;4.70;99.90;;;;;;5048042;28;20259;-88
2022/05/02 03:29:20;;;;;;;4.47;3.07;;;4.70;99.90;;;;;;5030421;28;20313;-86
2022/05/02 03:31:46;;;;;;;2.97;2.77;;;4.70;99.90;;;;;;5046901;28;20743;-86
2022/05/02 03:34:11;;;;;;;4.10;3.70;;;4.60;99.90;;;;;;5046806;28;20738;-87
2022/05/02 03:36:37;;;;;;;3.57;2.83;;;4.50;99.90;;;;;;5030277;28;20217;-88
2022/05/02 03:39:03;;;;;;;4.83;2.70;;;4.50;99.90;;;;;;5046530;28;20194;-86
2022/05/02 03:41:30;;;;;;;2.70;1.90;;;4.40;99.90;;;;;;5047158;28;20310;-85
2022/05/02 03:43:55;;;;;;;3.20;2.90;;;4.30;99.90;;;;;;5048365;28;20225;-89
2022/05/02 03:46:21;;;;;;;2.07;1.77;;;4.30;99.90;;;;;;5029684;28;20210;-87
2022/05/02 03:48:47;;;;;;;2.53;2.37;;;4.30;99.90;;;;;;5046731;28;20288;-87
2022/05/02 03:51:13;;;;;;;2.80;2.60;;;4.30;99.90;;;;;;5029310;28;20308;-87
2022/05/02 03:53:38;;;;;;;28.27;3.30;;;4.30;99.90;;;;;;5046986;28;20217;-86
2022/05/02 03:56:04;;;;;;;15.37;2.20;;;4.30;99.90;;;;;;5030064;28;20229;-86
2022/05/02 03:58:30;;;;;;;10.03;2.83;;;4.20;99.90;;;;;;5046612;28;20633;-87
2022/05/02 04:00:56;;;;;;;15.50;3.57;;;4.10;99.90;;;;;;5045604;28;20230;-87
2022/05/02 04:03:22;;;;;;;1.10;1.10;;;4.00;99.90;;;;;;5047242;28;20229;-87
2022/05/02 04:05:48;;;;;;;1.70;1.60;;;4.00;99.90;;;;;;5047412;28;20186;-87
2022/05/02 04:08:14;;;;;;;1.53;1.27;;;4.00;99.90;;;;;;5046137;28;20317;-86
2022/05/02 04:10:39;;;;;;;1.43;1.00;;;4.00;99.90;;;;;;5046322;28;20226;-88
2022/05/02 04:13:05;;;;;;;1.47;1.37;;;4.00;99.90;;;;;;5030594;28;20221;-88
2022/05/02 04:15:31;;;;;;;1.77;1.67;;;4.00;99.90;;;;;;5029401;28;20351;-88
2022/05/02 04:17:58;;;;;;;7.80;2.90;;;4.20;99.90;;;;;;5029418;28;20193;-88
2022/05/02 04:20:24;;;;;;;4.77;2.57;;;4.20;99.90;;;;;;5028695;28;20201;-88
2022/05/02 04:22:50;;;;;;;4.40;2.23;;;4.20;99.90;;;;;;5045357;28;20678;-86
2022/05/02 04:25:16;;;;;;;3.20;1.67;;;4.30;99.90;;;;;;5048727;28;20316;-88
2022/05/02 04:27:43;;;;;;;2.33;2.17;;;4.30;99.90;;;;;;5045222;28;20253;-89
2022/05/02 04:30:10;;;;;;;1.80;0.80;;;4.40;99.90;;;;;;5029779;28;20595;-89
2022/05/02 04:32:36;;;;;;;3.37;3.13;;;4.30;99.90;;;;;;5045709;28;20280;-88
2022/05/02 04:35:03;;;;;;;5.37;3.17;;;4.40;99.90;;;;;;5046381;28;20217;-92
2022/05/02 04:37:29;;;;;;;1.83;1.73;;;4.50;99.90;;;;;;5045479;28;20595;-89
2022/05/02 04:39:55;;;;;;;2.17;1.97;;;4.60;99.90;;;;;;5027004;28;20329;-89
2022/05/02 04:42:21;;;;;;;1.80;1.60;;;4.60;99.90;;;;;;5028371;28;20539;-89
2022/05/02 04:44:47;;;;;;;2.90;2.67;;;4.70;99.90;;;;;;5045049;28;20190;-88
2022/05/02 04:47:12;;;;;;;4.27;3.07;;;4.80;99.90;;;;;;5027728;28;20221;-88
2022/05/02 04:49:38;;;;;;;2.93;1.97;;;4.90;99.90;;;;;;5028367;28;20317;-89
2022/05/02 04:52:04;;;;;;;1.50;1.43;;;5.10;99.90;;;;;;5028132;28;20225;-87
2022/05/02 04:54:30;;;;;;;1.87;1.77;;;5.20;99.90;;;;;;5045956;28;20214;-88
2022/05/02 04:56:56;;;;;;;2.43;2.23;;;5.20;99.90;;;;;;5027137;28;20653;-87
2022/05/02 04:59:21;;;;;;;2.73;2.53;;;5.30;99.90;;;;;;5043611;28;20171;-88
2022/05/02 05:01:47;;;;;;;3.03;1.97;;;5.30;99.90;;;;;;5025551;28;20312;-88
2022/05/02 05:04:13;;;;;;;2.67;2.47;;;5.40;99.90;;;;;;5042631;28;21183;-89
2022/05/02 05:06:39;;;;;;;3.43;2.40;;;5.50;99.90;;;;;;5042720;28;20224;-90
2022/05/02 05:09:05;;;;;;;3.20;2.63;;;5.70;99.90;;;;;;5011356;28;20197;-89
2022/05/02 05:11:59;;;;;;;4.33;2.97;;;5.80;99.90;;;;;;5061650;28;20178;-89
2022/05/02 05:17:52;;;;;;;7.00;4.57;;;7.00;99.90;;;;;;5044511;28;20210;-90
2022/05/02 05:21:02;;;;;;;4.70;3.73;;;8.90;99.90;;;;;;5061321;28;20693;-89
2022/05/02 05:23:51;;;;;;;3.13;2.90;;;10.30;99.90;;;;;;5036150;28;20229;-90
2022/05/02 05:26:25;;;;;;;9.17;5.80;;;11.20;99.90;;;;;;5044188;28;20598;-92
2022/05/02 05:29:15;;;;;;;12.93;6.10;;;12.50;99.90;;;;;;5045133;28;20638;-90
2022/05/02 05:31:40;;;;;;;10.77;6.53;;;14.10;99.90;;;;;;5045236;28;20275;-89
2022/05/02 05:34:18;;;;;;;9.90;6.90;;;15.70;99.90;;;;;;5044400;28;20214;-90
2022/05/02 05:37:15;;;;;;;11.90;8.53;;;16.80;99.90;;;;;;5060307;28;20556;-90
2022/05/02 05:40:09;;;;;;;7.17;5.53;;;17.50;99.90;;;;;;5044975;28;20298;-90
2022/05/02 05:42:53;;;;;;;9.00;5.87;;;18.90;99.90;;;;;;5043688;28;20228;-89
2022/05/02 05:45:41;;;;;;;6.17;4.37;;;19.70;99.90;;;;;;5044512;28;20209;-89
2022/05/02 05:48:28;;;;;;;5.43;3.43;;;21.00;99.90;;;;;;5043685;28;20182;-90
2022/05/02 05:51:34;;;;;;;7.07;4.90;;;21.10;99.90;;;;;;5043680;28;20678;-91
2022/05/02 05:54:16;;;;;;;6.40;4.00;;;21.70;99.90;;;;;;5017307;28;20194;-90
2022/05/02 05:56:50;;;;;;;5.53;3.63;;;20.50;99.90;;;;;;5044163;28;20182;-89
2022/05/02 05:59:19;;;;;;;5.37;4.67;;;20.70;99.90;;;;;;5044619;28;20228;-90
2022/05/02 06:02:16;;;;;;;9.53;4.17;;;20.80;99.90;;;;;;5042143;28;20608;-84
2022/05/02 06:04:43;;;;;;;7.17;4.20;;;20.80;99.90;;;;;;5043033;28;20214;-84
2022/05/02 06:07:11;;;;;;;5.93;4.27;;;20.60;99.90;;;;;;5041708;28;20225;-84
2022/05/02 06:09:42;;;;;;;4.90;3.83;;;19.20;99.90;;;;;;5041433;28;20275;-88
2022/05/02 06:12:12;;;;;;;6.77;3.60;;;18.20;99.90;;;;;;5042776;28;20537;-84
2022/05/02 06:18:27;;;;;;;7.70;4.00;;;17.80;99.90;;;;;;5044556;28;20272;-85
2022/05/02 06:20:12;;;;;;;4.37;3.40;;;18.40;99.90;;;;;;5043927;28;20213;-86
2022/05/02 06:22:42;;;;;;;6.50;3.90;;;17.80;99.90;;;;;;5041626;28;20234;-85
2022/05/02 06:25:08;;;;;;;5.10;3.80;;;18.00;99.90;;;;;;5041965;28;20245;-85
2022/05/02 06:27:34;;;;;;;5.80;4.00;;;18.80;99.90;;;;;;5041772;28;20217;-85
2022/05/02 06:30:02;;;;;;;4.17;3.77;;;19.10;99.90;;;;;;5027882;28;20182;-85
2022/05/02 06:32:30;;;;;;;5.07;4.20;;;19.00;99.90;;;;;;5048692;28;20196;-85
2022/05/02 06:34:57;;;;;;;7.70;4.17;;;18.50;99.90;;;;;;5045337;28;20259;-87
2022/05/02 06:37:55;;;;;;;6.30;3.83;;;19.30;99.90;;;;;;5029407;28;20583;-85
2022/05/02 06:40:58;;;;;;;3.90;3.30;;;18.50;99.90;;;;;;5045789;28;20307;-87
2022/05/02 06:43:49;;;;;;;5.17;2.97;;;18.80;99.90;;;;;;5043287;28;20248;-85
2022/05/02 06:46:23;;;;;;;4.43;3.50;;;19.00;99.90;;;;;;5043726;28;20267;-85
2022/05/02 06:48:56;;;;;;;4.67;3.67;;;18.30;99.90;;;;;;5059894;28;20267;-84
2022/05/02 06:51:31;;;;;;;4.57;3.93;;;19.30;99.90;;;;;;5044423;28;20245;-85
2022/05/02 06:54:38;;;;;;;4.70;3.47;;;19.00;99.90;;;;;;5046442;28;20222;-85
2022/05/02 06:57:37;;;;;;;6.03;3.37;;;19.10;99.90;;;;;;5042446;28;20212;-86
2022/05/02 07:00:08;;;;;;;5.90;3.47;;;18.60;99.90;;;;;;5043885;28;20702;-84
2022/05/02 07:02:54;;;;;;;5.83;3.77;;;17.50;99.90;;;;;;5027800;28;20217;-84
2022/05/02 07:05:27;;;;;;;4.80;3.23;;;17.90;99.90;;;;;;5045384;28;20252;-86
2022/05/02 07:08:03;;;;;;;3.77;3.10;;;18.60;99.90;;;;;;5046166;28;20271;-85
2022/05/02 07:10:34;;;;;;;4.17;3.10;;;18.10;99.90;;;;;;5043695;28;20259;-83
2022/05/02 07:13:18;;;;;;;4.63;3.00;;;17.60;99.90;;;;;;5044163;28;20701;-84
2022/05/02 07:15:48;;;;;;;3.20;2.50;;;18.50;99.90;;;;;;5044364;28;20228;-84
2022/05/02 07:18:45;;;;;;;9.07;3.87;;;19.80;99.90;;;;;;5046173;28;20218;-86
2022/05/02 07:21:43;;;;;;;3.20;2.30;;;20.70;99.90;;;;;;5045557;28;20197;-83
2022/05/02 07:24:21;;;;;;;6.50;3.80;;;22.80;99.90;;;;;;5026061;28;20197;-85
2022/05/02 07:26:58;;;;;;;5.43;2.93;;;23.70;99.90;;;;;;5044340;28;20173;-84
2022/05/02 07:29:25;;;;;;;2.57;2.03;;;23.00;99.90;;;;;;5045108;28;20213;-86
2022/05/02 07:31:51;;;;;;;3.47;2.90;;;22.90;99.90;;;;;;5020358;28;20228;-87
2022/05/02 07:34:20;;;;;;;3.57;2.37;;;23.00;99.90;;;;;;5025636;28;21131;-88
2022/05/02 07:36:50;;;;;;;5.07;2.33;;;23.40;99.90;;;;;;5043620;28;20214;-86
2022/05/02 07:39:19;;;;;;;3.43;2.50;;;22.50;99.90;;;;;;5045528;28;20344;-88
2022/05/02 07:41:46;;;;;;;3.73;2.60;;;22.70;99.90;;;;;;5043374;28;20671;-84
2022/05/02 07:44:13;;;;;;;3.47;3.17;;;23.00;99.90;;;;;;5026520;28;20252;-87
2022/05/02 07:46:45;;;;;;;4.07;2.60;;;23.70;99.90;;;;;;5025263;28;20225;-86
2022/05/02 07:49:15;;;;;;;4.33;2.50;;;24.10;99.90;;;;;;5042619;28;20236;-84
2022/05/02 07:51:50;;;;;;;7.20;2.40;;;23.90;97.90;;;;;;5042941;28;20210;-86
2022/05/02 07:54:20;;;;;;;3.87;2.80;;;23.70;98.20;;;;;;5042598;28;20209;-87
2022/05/02 07:56:48;;;;;;;4.03;3.20;;;24.50;99.00;;;;;;5044070;28;20182;-87
2022/05/02 07:59:20;;;;;;;3.10;2.50;;;24.10;97.10;;;;;;5042220;28;20221;-87
2022/05/02 08:01:46;;;;;;;3.00;2.40;;;24.70;97.90;;;;;;5043420;28;20229;-87
2022/05/02 08:04:13;;;;;;;3.63;2.85;;;25.20;95.10;;;;;;5026454;28;20233;-87
2022/05/02 08:06:52;;;;;;;4.20;2.65;;;25.80;96.20;;;;;;5026448;28;20674;-87
2022/05/02 08:09:55;;;;;;;6.28;2.80;;;25.90;94.70;;;;;;5042467;28;20213;-87
2022/05/02 08:12:31;;;;;;;3.85;3.22;;;25.80;95.20;;;;;;5042367;28;20228;-88
2022/05/02 08:15:39;;;;;;;4.85;3.45;;;26.50;95.40;;;;;;5041854;28;20185;-88
2022/05/02 08:18:32;;;;;;;6.20;3.25;;;26.20;93.70;;;;;;4943275;29;20193;-88
2022/05/02 08:21:05;;;;;;;3.63;2.90;;;24.60;94.30;;;;;;5039499;28;20291;-87
2022/05/02 08:27:16;;;;;;;3.38;3.08;;;24.50;95.10;;;;;;5043684;28;20317;-89
2022/05/02 08:30:03;;;;;;;4.18;3.10;;;25.60;93.50;;;;;;5042828;28;20245;-86
2022/05/02 08:32:37;;;;;;;3.65;3.30;;;24.90;94.70;;;;;;5044137;28;20241;-87
2022/05/02 08:35:16;;;;;;;5.95;2.92;;;24.70;93.70;;;;;;5041644;28;20275;-86
2022/05/02 08:38:11;;;;;;;3.70;3.30;;;24.30;94.10;;;;;;5043138;28;20530;-86
2022/05/02 08:41:10;;;;;;;3.40;3.10;;;24.40;93.90;;;;;;5043089;28;20233;-88
2022/05/02 08:43:54;;;;;;;4.28;2.88;;;23.20;95.40;;;;;;5041903;28;20226;-90
2022/05/02 08:46:26;;;;;;;4.57;3.40;;;24.20;93.90;;;;;;5041426;28;20300;-87
2022/05/02 08:49:37;;;;;;;4.55;3.63;;;23.80;94.90;;;;;;5042910;28;20684;-89
2022/05/02 08:52:27;;;;;;;5.20;3.30;;;24.20;94.20;;;;;;5042425;28;20217;-87
2022/05/02 08:55:08;;;;;;;5.32;3.42;;;25.50;92.70;;;;;;5044885;28;20287;-88
2022/05/02 08:57:48;;;;;;;5.50;4.05;;;23.90;94.40;;;;;;5042071;28;20284;-88
2022/05/02 09:00:27;;;;;;;5.38;3.35;;;23.20;94.40;;;;;;5042288;28;20305;-88
2022/05/02 09:02:55;;;;;;;5.10;3.97;;;24.60;96.60;;;;;;5043260;28;20189;-90
2022/05/02 09:05:39;;;;;;;7.15;4.07;;;24.60;94.20;;;;;;5046422;28;20213;-89
2022/05/02 09:08:10;;;;;;;4.50;4.10;;;24.40;93.20;;;;;;5047209;28;20221;-90
2022/05/02 09:11:07;;;;;;;5.07;3.63;;;24.40;95.80;;;;;;5048999;28;20210;-93
2022/05/02 09:13:39;;;;;;;4.15;3.47;;;22.90;95.50;;;;;;5044655;28;20698;-91
2022/05/02 09:16:32;;;;;;;6.05;4.05;;;22.60;95.60;;;;;;5046004;28;20225;-91
2022/05/02 09:19:07;;;;;;;3.88;3.47;;;22.50;97.60;;;;;;5045467;28;20229;-92
2022/05/02 09:22:01;;;;;;;6.35;4.18;;;23.80;96.30;;;;;;5044176;28;20252;-93
2022/05/02 09:24:42;;;;;;;4.15;3.03;;;23.50;95.40;;;;;;5044293;28;20275;-92
2022/05/02 09:27:33;;;;;;;6.30;3.75;;;24.10;95.00;;;;;;5045338;28;20193;-92
2022/05/02 09:30:24;;;;;;;6.03;3.78;;;23.10;96.00;;;;;;5046085;28;20189;-93
2022/05/02 09:33:15;;;;;;;4.53;3.80;;;23.00;96.90;;;;;;5049874;28;20204;-91
2022/05/02 09:36:08;;;;;;;4.43;3.30;;;22.80;97.10;;;;;;5046771;28;20213;-93
2022/05/02 09:38:48;;;;;;;6.00;3.57;;;23.20;96.00;;;;;;5034369;28;20233;-89
2022/05/02 09:41:36;;;;;;;6.43;3.43;;;23.20;96.00;;;;;;5045080;28;20245;-94
2022/05/02 09:50:48;;;;;;;3.57;3.00;;;23.20;95.70;;;;;;5045885;28;20209;-92
2022/05/02 09:53:20;;;;;;;4.30;3.33;;;21.80;97.60;;;;;;5043914;28;20222;-91
2022/05/02 09:59:07;;;;;;;4.13;2.87;;;21.90;96.40;;;;;;5044810;28;20236;-91
2022/05/02 10:01:33;;;;;;;4.10;3.10;;;20.50;99.80;;;;;;5044348;28;20230;-91
2022/05/02 10:04:20;;;;;;;2.93;2.73;;;20.90;98.20;;;;;;5043542;28;20332;-91
2022/05/02 10:06:51;;;;;;;4.23;2.73;;;21.00;98.00;;;;;;5044199;28;20214;-92
2022/05/02 10:09:50;;;;;;;3.53;2.60;;;20.60;97.50;;;;;;5043045;28;20214;-90
2022/05/02 10:12:40;;;;;;;4.17;3.17;;;21.40;97.50;;;;;;5049501;28;20233;-94
2022/05/02 10:15:39;;;;;;;3.30;2.67;;;23.00;98.50;;;;;;5047928;28;20623;-94
2022/05/02 10:18:17;;;;;;;3.67;3.37;;;24.30;93.80;;;;;;5014234;28;20229;-93
2022/05/02 10:21:00;;;;;;;3.47;2.70;;;23.90;94.30;;;;;;5045963;28;20186;-92
2022/05/02 10:24:05;;;;;;;3.83;2.80;;;23.70;92.50;;;;;;5045631;28;20256;-91
2022/05/02 10:26:42;;;;;;;4.47;3.10;;;21.70;96.70;;;;;;5037577;28;20260;-90
2022/05/02 10:29:34;;;;;;;3.67;3.00;;;21.80;97.10;;;;;;5029932;28;20209;-92
2022/05/02 10:32:07;;;;;;;4.33;2.90;;;20.80;98.30;;;;;;5035995;28;21094;-92
2022/05/02 10:34:41;;;;;;;2.90;2.60;;;20.70;99.30;;;;;;5034109;28;20226;-92
2022/05/02 10:37:10;;;;;;;3.77;2.77;;;20.60;98.20;;;;;;5033701;28;20228;-92
2022/05/02 10:39:46;;;;;;;4.47;2.47;;;20.80;98.30;;;;;;5044010;28;20234;-90
2022/05/02 10:42:16;;;;;;;3.77;2.57;;;21.60;97.80;;;;;;5044575;28;20202;-91
2022/05/02 10:44:55;;;;;;;4.07;2.10;;;20.50;99.00;;;;;;5060992;28;20182;-91
2022/05/02 10:47:26;;;;;;;3.87;2.30;;;20.30;98.60;;;;;;5015764;28;20232;-91
2022/05/02 10:50:15;;;;;;;2.80;2.13;;;19.70;99.90;;;;;;5044688;28;20581;-94
2022/05/02 10:53:30;;;;;;;2.67;2.20;;;19.70;99.90;;;;;;5044896;28;20363;-94
2022/05/02 10:56:10;;;;;;;3.77;2.80;;;20.10;99.90;;;;;;5047653;28;20222;-91
2022/05/02 10:58:39;;;;;;;6.90;2.43;;;20.40;98.50;;;;;;5060030;28;20275;-93
2022/05/02 11:01:07;;;;;;;3.30;2.87;;;20.10;99.20;;;;;;5028027;28;20234;-91
2022/05/02 11:03:53;;;;;;;3.87;2.83;;;20.30;99.00;;;;;;5044280;28;20228;-93
2022/05/02 11:06:36;;;;;;;3.37;2.63;;;19.20;99.90;;;;;;5044538;28;20249;-92
2022/05/02 11:09:06;;;;;;;3.07;2.53;;;19.20;99.90;;;;;;5043585;28;20201;-90
2022/05/02 11:11:51;;;;;;;4.23;2.60;;;19.40;99.90;;;;;;5043748;28;20190;-90
2022/05/02 11:14:22;;;;;;;5.00;2.70;;;18.30;99.90;;;;;;5026682;28;20688;-90
2022/05/02 11:17:19;;;;;;;3.30;2.67;;;18.60;99.90;;;;;;5044525;28;20229;-90
2022/05/02 11:23:07;;;;;;;3.10;2.50;;;19.20;99.90;;;;;;5048932;28;20221;-89
2022/05/02 11:26:09;;;;;;;4.43;2.20;;;18.60;99.90;;;;;;5046406;28;20228;-92
2022/05/02 11:29:23;;;;;;;4.77;2.23;;;18.40;99.90;;;;;;5046534;28;20763;-89
2022/05/02 11:32:01;;;;;;;4.73;2.20;;;18.20;99.90;;;;;;4997147;28;20225;-89
2022/05/02 11:34:50;;;;;;;3.50;2.67;;;17.80;99.90;;;;;;5046574;28;20229;-90
2022/05/02 11:37:39;;;;;;;2.73;2.20;;;18.40;99.90;;;;;;5062335;28;20268;-91
2022/05/02 11:40:10;;;;;;;4.90;2.77;;;18.20;99.90;;;;;;5036338;28;20264;-90
2022/05/02 11:42:42;;;;;;;4.20;2.10;;;17.70;99.90;;;;;;5019815;28;20237;-90
2022/05/02 11:45:10;;;;;;;4.17;2.40;;;18.00;99.90;;;;;;5046772;28;20182;-90
2022/05/02 11:47:51;;;;;;;4.97;2.20;;;17.60;99.90;;;;;;5047045;28;20174;-91
2022/05/02 11:50:21;;;;;;;4.70;2.03;;;17.80;99.90;;;;;;5047098;28;20234;-90
2022/05/02 11:52:55;;;;;;;2.27;1.77;;;17.80;99.90;;;;;;5047236;28;20297;-90
2022/05/02 11:55:33;;;;;;;2.57;2.37;;;18.00;99.90;;;;;;5046201;28;20226;-91
2022/05/02 11:58:07;;;;;;;2.87;2.60;;;17.80;99.90;;;;;;5046220;28;20688;-90
2022/05/02 12:00:37;;;;;;;2.40;1.90;;;17.50;99.90;;;;;;5046160;28;20222;-90
2022/05/02 12:03:18;;;;;;;1.93;1.73;;;17.30;99.90;;;;;;5029878;28;20186;-90
2022/05/02 12:05:55;;;;;;;1.97;1.87;;;17.40;99.90;;;;;;5046856;28;20190;-92
2022/05/02 12:08:31;;;;;;;2.27;1.73;;;17.10;99.90;;;;;;5047776;28;20210;-91
2022/05/02 12:11:09;;;;;;;3.33;2.13;;;16.70;99.90;;;;;;5045993;28;20232;-92
2022/05/02 12:13:47;;;;;;;1.80;1.60;;;16.50;99.90;;;;;;5046002;28;20217;-91
2022/05/02 12:16:20;;;;;;;1.63;1.53;;;16.50;99.90;;;;;;5046828;28;20352;-93
2022/05/02 12:18:54;;;;;;;4.53;2.10;;;16.70;99.90;;;;;;5047454;28;20252;-91
2022/05/02 12:21:31;;;;;;;1.83;1.70;;;16.70;99.90;;;;;;5047390;28;20283;-88
2022/05/02 12:23:58;;;;;;;3.27;2.00;;;16.60;99.90;;;;;;5062337;28;20177;-88
2022/05/02 12:26:25;;;;;;;2.13;1.73;;;16.60;99.90;;;;;;5046037;28;20190;-89
2022/05/02 12:28:58;;;;;;;2.57;1.80;;;16.50;99.90;;;;;;5044200;28;20566;-89
2022/05/02 12:31:34;;;;;;;1.97;1.53;;;16.60;99.90;;;;;;5043951;28;20233;-88
2022/05/02 12:34:07;;;;;;;3.17;1.63;;;16.50;99.90;;;;;;5045297;28;20217;-91
2022/05/02 12:36:47;;;;;;;3.53;1.37;;;16.20;99.90;;;;;;5045266;28;20222;-90
2022/05/02 12:39:33;;;;;;;2.17;1.67;;;16.80;99.90;;;;;;5046091;28;22965;-91
2022/05/02 12:42:15;;;;;;;2.87;1.80;;;17.10;99.90;;;;;;5029723;28;20225;-92
2022/05/02 12:45:13;;;;;;;3.57;1.93;;;16.90;99.90;;;;;;5046561;28;20631;-90
2022/05/02 12:47:54;;;;;;;5.47;1.70;;;16.80;99.90;;;;;;5042110;28;20677;-90
2022/05/02 12:50:22;;;;;;;2.60;1.83;;;16.90;99.90;;;;;;5062539;28;20571;-90
2022/05/02 12:52:49;;;;;;;2.07;1.67;;;16.70;99.90;;;;;;5045515;28;20316;-90
2022/05/02 12:55:16;;;;;;;2.17;1.83;;;16.60;99.90;;;;;;5045000;28;20221;-91
2022/05/02 13:00:40;;;;;;;6.00;2.30;;;17.00;99.90;;;;;;5046274;28;20213;-88
2022/05/02 13:03:18;;;;;;;1.13;1.03;;;16.80;99.90;;;;;;5027052;28;20673;-89
2022/05/02 13:05:53;;;;;;;1.40;1.27;;;16.30;99.90;;;;;;5046296;28;20190;-88
2022/05/02 13:08:31;;;;;;;1.57;1.47;;;16.40;99.90;;;;;;5045666;28;20220;-89
2022/05/02 13:11:11;;;;;;;1.63;1.53;;;16.40;99.90;;;;;;5060385;28;20256;-89
2022/05/02 13:13:47;;;;;;;2.63;1.80;;;16.30;99.90;;;;;;5026874;28;21214;-88
2022/05/02 13:16:26;;;;;;;1.53;0.93;;;16.30;99.90;;;;;;5028107;28;20503;-89
2022/05/02 13:18:53;;;;;;;2.03;1.83;;;16.50;99.90;;;;;;5044703;28;20654;-88
2022/05/02 13:21:19;;;;;;;1.23;1.10;;;16.30;99.90;;;;;;5027423;28;20589;-90
2022/05/02 13:23:49;;;;;;;3.47;1.63;;;16.50;99.90;;;;;;5045569;28;20631;-94
2022/05/02 13:27:17;;;;;;;1.80;1.50;;;16.10;99.90;;;;;;5043896;28;20226;-90
2022/05/02 13:29:58;;;;;;;1.03;1.00;;;16.30;99.90;;;;;;5037260;28;20741;-91
2022/05/02 13:32:35;;;;;;;3.77;1.70;;;16.80;99.90;;;;;;5044285;28;20225;-89
2022/05/02 13:35:06;;;;;;;1.37;1.10;;;16.60;99.90;;;;;;5044870;28;20247;-89
2022/05/02 13:37:38;;;;;;;1.13;0.90;;;16.20;99.90;;;;;;5045479;28;20249;-93
2022/05/02 13:40:10;;;;;;;1.30;1.20;;;16.30;99.90;;;;;;5043603;28;20292;-88
2022/05/02 13:42:53;;;;;;;1.30;1.20;;;16.30;99.90;;;;;;5060258;28;20233;-89
2022/05/02 13:45:41;;;;;;;1.97;1.27;;;16.30;99.90;;;;;;5044029;28;20245;-87
2022/05/02 13:48:20;;;;;;;1.20;1.10;;;16.10;99.90;;;;;;5044934;28;20190;-87
2022/05/02 13:51:11;;;;;;;1.63;1.40;;;16.00;99.90;;;;;;5044124;28;20272;-87
2022/05/02 13:53:58;;;;;;;1.30;1.10;;;16.10;99.90;;;;;;5052302;28;20202;-90
2022/05/02 13:56:44;;;;;;;1.43;1.03;;;15.90;99.90;;;;;;5045460;28;20211;-89